Terminal Aerodrome Forecast
Issued by NWS

Home | Current Version | Previous Version | Text Only | Print | Product List | Glossary On
Versions: 1 2 3 4 5 6 7 8 9 10 11 12 13 14 15 16 17
000
FTUS46 KMFR 271120
TAFOTH
TAF
KOTH 271120Z 2712/2812 02004KT P6SM SCT008
     FM271800 36012G19KT P6SM SKC
     FM272200 35018G26KT P6SM SKC
     FM280300 36012G20KT P6SM SCT007
     FM280700 35007KT P6SM OVC005=

USA.gov is the U.S. government's official web portal to all federal, state and local government web resources and services.